createdAt,value
2023-03-20T00:01:26.491Z,16.64
2023-03-20T00:08:29.734Z,16.54
2023-03-20T00:15:34.294Z,16.57
2023-03-20T00:22:36.053Z,16.43
2023-03-20T00:29:37.614Z,16.50
2023-03-20T00:36:39.279Z,16.42
2023-03-20T00:43:40.841Z,16.22
2023-03-20T00:50:42.536Z,16.13
2023-03-20T00:57:55.786Z,16.10
2023-03-20T01:04:58.435Z,15.97
2023-03-20T01:12:00.582Z,15.90
2023-03-20T01:19:02.153Z,15.84
2023-03-20T01:26:04.123Z,15.72
2023-03-20T01:33:26.489Z,15.79
2023-03-20T01:40:55.822Z,15.67
2023-03-20T01:47:58.929Z,15.58
2023-03-20T01:55:00.883Z,15.56
2023-03-20T02:02:02.625Z,15.50
2023-03-20T02:09:04.432Z,15.56
2023-03-20T02:16:14.028Z,15.48
2023-03-20T02:24:16.439Z,15.37
2023-03-20T02:31:48.346Z,15.33
2023-03-20T02:39:02.611Z,15.33
2023-03-20T02:46:20.541Z,15.25
2023-03-20T02:53:34.763Z,15.31
2023-03-20T03:00:39.309Z,15.31
2023-03-20T03:07:44.148Z,15.34
2023-03-20T03:14:49.146Z,15.42
2023-03-20T03:21:52.384Z,15.35
2023-03-20T03:28:58.263Z,15.43
2023-03-20T03:36:26.154Z,15.47
2023-03-20T03:43:35.617Z,15.38
2023-03-20T03:50:47.758Z,15.31
2023-03-20T03:57:52.638Z,15.34
2023-03-20T04:04:55.148Z,15.26
2023-03-20T04:11:56.734Z,15.23
2023-03-20T04:18:58.426Z,15.19
2023-03-20T04:26:00.165Z,15.12
2023-03-20T04:33:03.358Z,15.09
2023-03-20T04:40:19.854Z,15.11
2023-03-20T04:47:22.822Z,15.08
2023-03-20T04:54:26.616Z,15.07
2023-03-20T05:01:28.518Z,15.07
2023-03-20T05:08:30.254Z,15.05
2023-03-20T05:15:35.470Z,15.07
2023-03-20T05:22:55.881Z,15.02
2023-03-20T05:30:16.533Z,15.04
2023-03-20T05:37:30.210Z,15.02
2023-03-20T05:44:41.697Z,14.87
2023-03-20T05:52:06.531Z,15.02
2023-03-20T05:59:20.301Z,15.03
2023-03-20T06:06:42.254Z,15.07
2023-03-20T06:13:44.360Z,15.09
2023-03-20T06:20:47.016Z,14.97
2023-03-20T06:27:49.164Z,14.95
2023-03-20T06:34:51.012Z,14.71
2023-03-20T06:41:52.777Z,14.43
2023-03-20T06:48:58.114Z,14.38
2023-03-20T06:55:59.780Z,14.41
2023-03-20T07:03:02.445Z,14.38
2023-03-20T07:10:04.579Z,14.30
2023-03-20T07:17:06.285Z,14.28
2023-03-20T07:24:08.932Z,14.28
2023-03-20T07:31:18.810Z,14.27
2023-03-20T07:38:21.628Z,13.97
2023-03-20T07:45:36.391Z,13.62
2023-03-20T07:52:38.192Z,13.64
2023-03-20T07:59:39.902Z,13.68
2023-03-20T08:06:41.518Z,13.78
2023-03-20T08:13:43.217Z,13.73
2023-03-20T08:20:44.764Z,14.13
2023-03-20T08:27:46.618Z,14.30
2023-03-20T08:34:48.210Z,14.27
2023-03-20T08:41:49.726Z,14.10
2023-03-20T08:48:51.549Z,14.17
2023-03-20T08:55:53.314Z,14.67
2023-03-20T09:02:54.885Z,15.53
2023-03-20T09:09:56.553Z,16.18
2023-03-20T09:16:58.124Z,16.23
2023-03-20T09:23:59.672Z,16.34
2023-03-20T09:31:01.359Z,16.24
2023-03-20T09:38:03.077Z,16.29
2023-03-20T09:45:22.140Z,16.40
2023-03-20T09:52:51.866Z,16.46
2023-03-20T09:59:57.565Z,16.18
2023-03-20T10:06:59.063Z,16.13
2023-03-20T10:14:18.516Z,16.04
2023-03-20T10:21:24.841Z,16.02
2023-03-20T10:28:36.643Z,16.04
2023-03-20T10:35:57.441Z,16.21
2023-03-20T10:43:09.510Z,15.96
2023-03-20T10:50:15.418Z,15.82
2023-03-20T10:57:24.546Z,15.79
2023-03-20T11:04:26.203Z,15.99
2023-03-20T11:11:28.777Z,15.85
2023-03-20T11:18:30.412Z,16.12
2023-03-20T11:25:37.476Z,15.93
2023-03-20T11:32:46.466Z,15.85
2023-03-20T11:40:01.434Z,16.30
2023-03-20T11:47:14.201Z,16.23
2023-03-20T11:54:20.136Z,16.25
2023-03-20T12:01:22.144Z,16.46
2023-03-20T12:08:25.074Z,15.85
2023-03-20T12:15:37.003Z,16.23
2023-03-20T12:22:43.272Z,16.15
2023-03-20T12:29:48.836Z,16.35
2023-03-20T12:36:52.907Z,16.16
2023-03-20T12:43:54.519Z,16.28
2023-03-20T12:51:07.875Z,16.26
2023-03-20T12:58:32.581Z,16.07
2023-03-20T13:05:51.054Z,16.36
2023-03-20T13:13:04.214Z,16.23
2023-03-20T13:20:24.013Z,16.11
2023-03-20T13:27:45.758Z,16.04
2023-03-20T13:34:47.323Z,16.15
2023-03-20T13:41:48.879Z,16.30
2023-03-20T13:48:50.706Z,16.06
2023-03-20T13:56:11.562Z,15.95
2023-03-20T14:03:22.260Z,16.28
2023-03-20T14:10:24.060Z,16.14
2023-03-20T14:17:27.260Z,16.13
2023-03-20T14:24:28.796Z,16.20
2023-03-20T14:31:31.533Z,16.06
2023-03-20T14:38:44.564Z,15.90
2023-03-20T14:45:51.561Z,16.03
2023-03-20T14:52:54.540Z,15.85
2023-03-20T14:59:56.239Z,16.01
2023-03-20T15:07:19.208Z,15.92
2023-03-20T15:14:22.970Z,15.84
2023-03-20T15:21:36.548Z,15.93
2023-03-20T15:28:38.200Z,15.78
2023-03-20T15:35:39.837Z,15.90
2023-03-20T15:42:41.370Z,15.85
2023-03-20T15:49:43.037Z,15.93
2023-03-20T15:56:45.727Z,15.82
2023-03-20T16:03:47.476Z,15.90
2023-03-20T16:10:49.019Z,15.97
2023-03-20T16:17:50.553Z,15.80
2023-03-20T16:24:55.532Z,15.69
2023-03-20T16:31:59.390Z,15.58
2023-03-20T16:39:08.133Z,15.56
2023-03-20T16:46:09.653Z,15.54
2023-03-20T16:53:12.322Z,15.44
2023-03-20T17:00:25.820Z,15.49
2023-03-20T17:07:28.378Z,15.63
2023-03-20T17:14:30.080Z,15.22
2023-03-20T17:21:31.885Z,15.17
2023-03-20T17:28:34.991Z,15.07
2023-03-20T17:35:37.162Z,15.16
2023-03-20T17:42:39.643Z,15.10
2023-03-20T17:49:41.181Z,15.03
2023-03-20T17:56:42.875Z,15.03
2023-03-20T18:03:44.433Z,15.07
2023-03-20T18:10:46.013Z,14.93
2023-03-20T18:17:47.523Z,15.04
2023-03-20T18:24:49.096Z,14.80
2023-03-20T18:31:50.774Z,14.86
2023-03-20T18:38:52.412Z,14.83
2023-03-20T18:45:54.075Z,14.84
2023-03-20T18:52:56.410Z,14.73
2023-03-20T18:59:57.930Z,14.77
2023-03-20T19:06:59.456Z,14.76
2023-03-20T19:14:01.243Z,14.85
2023-03-20T19:21:02.862Z,14.81
2023-03-20T19:28:04.886Z,14.81
2023-03-20T19:42:53.075Z,14.74
2023-03-20T19:49:50.150Z,14.71
2023-03-20T19:56:51.699Z,14.66
2023-03-20T20:03:58.204Z,14.55
2023-03-20T20:10:59.802Z,14.61
2023-03-20T20:18:01.556Z,14.56
2023-03-20T20:25:03.338Z,14.52
2023-03-20T20:32:05.401Z,14.49
2023-03-20T20:39:07.170Z,14.45
2023-03-20T20:46:08.818Z,14.37
2023-03-20T20:53:10.570Z,14.38
2023-03-20T21:00:12.681Z,14.31
2023-03-20T21:07:14.255Z,14.35
2023-03-20T21:14:15.785Z,14.29
2023-03-20T21:21:17.319Z,14.30
2023-03-20T21:28:18.914Z,14.21
2023-03-20T21:35:20.420Z,14.16
2023-03-20T21:42:21.938Z,14.29
2023-03-20T21:50:17.509Z,14.21
2023-03-20T22:05:01.418Z,14.20
2023-03-20T22:12:07.705Z,14.16
2023-03-20T22:27:13.014Z,14.11
2023-03-20T22:48:20.418Z,14.03
2023-03-20T22:55:22.677Z,14.01
2023-03-20T23:02:24.172Z,13.98
2023-03-20T23:09:25.722Z,14.01
2023-03-20T23:16:27.347Z,13.89
2023-03-20T23:23:28.939Z,13.95
2023-03-20T23:30:37.832Z,13.79
2023-03-20T23:37:45.464Z,13.84
2023-03-20T23:44:55.565Z,13.74
2023-03-20T23:51:58.855Z,13.79
2023-03-20T23:59:11.177Z,13.79
